Current Conditions
Clear
Conditions



Pressure
29.98 (inHG) - 1015.22 (mb)
Visibility

9.9 (mimiles) - 16.0 (km)
   Temperature
84  °F
29°C
73  °F
Dewpoint
70  %
 Humidity
   Wind Speed
5  mph
4  kts
8  km/h
2.2  m/s
   Wind Direction
 170°
Due South
   Airport Data
KDWH
Location David Wayne Hooks Memorial Airport 4.4 mi (7.08 km)
Metar :KDWH 110253Z AUTO 17004KT 10SM CLR 29/23 A2998 RMK AO2 SLP150 T02890228 53005 $
Mon 10th August 21:53 pm
   Raw Metar Info
Raw METAR is the most common format in the world for the transmission of observational weather data. It is highly standardized through the International Civil Aviation Organization (ICAO), which allows it to be understood throughout most of the world.
   API Info
Data Provided by
https://www.checkwx.com/weather/KDWH
   © Info
CSS/SVG/PHP scripts were developed by weather34.com for use in the weather34 template © 2015-2020

Guide Info provided by Metar-Wikipedia